2022-08-08 - 22:34:00

SR: 0402 - SS: 1908

RWY: 07


OBSERVATION: n/a

RVR Mean 1 min: (Runway Visual Range)
A: P2000 - B: P2000 - C: P2000
RVR Mean 10 min:
A: P2000 - B: P2000 - C: P2000
WARNING: n/a
W25: 360-060(020-05kt) 02kt-07kt
W07: 010-050(020-06kt) 04kt-07kt
OTHER: n/a

QFE: (tatsächlicher Luftdruck) 1021.5 hPa = 30.15 inHg
QNH:(Luftdruck auf Meereshöhe) 1027.3 hPa = 30.32 inHg
Temperatur: 16.4 °C
Dew point(Taupunkt): 12.3 °C

METAR:  00782 SADL31 EDDG 082220 METAR EDDG 082220Z 02005KT 360V060 CAVOK 17/12 Q1027 NOSIG= 
METAR (aus weather.noaa.gov):
2022/08/08 22:20 EDDG 082220Z 02005KT 360V060 CAVOK 17/12 Q1027 NOSIG

TAF (aus weather.noaa.gov):
2022/08/08 18:27 TAF TAF EDDG 081700Z 0818/0918 36008KT CAVOK BECMG 0819/0822 02003KT BECMG 0907/0910 03008KT
NOWCAST
621
FODL44 EDDG 082200
FODL44 EDDG 2208082205
# Nowcasting EDDG 08.08.2022 22:05 UTC
Parameter/Stunde23000102030405
Windrichtung020020020020020020020
Windgeschwindigkeit4433333
Böen--------------
Lufttemperatur16151514141414
Taupunkt12121212121212
Belagstemperatur14131211111214
Wetter-vorherrschend--------------
QNH1027102710271027102710271027
Wind in 5000 ft270/05360/05010/05010/05020/05040/05050/05
Wind in 3000 ft090/05080/05070/05050/05050/05060/05060/10
Wind in 2000 ft070/15070/15080/15080/15080/10080/10070/10
Wind in 1000 ft050/20060/20060/20070/20070/15060/15060/15